Time;durP1;ratioP1;P1;durP2;ratioP2;P2;SDS_P1;SDS_P2;PMS_P1;PMS_P2;Temp;Humidity;BMP_temperature;BMP_pressure;BME280_temperature;BME280_humidity;BME280_pressure;Samples;Min_cycle;Max_cycle;Signal;HPM_P1;HPM_P2
2022/08/09 00:00:19;;;;;;;5.17;0.97;;;;;;;18.81;42.31;99113.56;4969473;28;20227;-51
2022/08/09 00:02:45;;;;;;;2.67;1.10;;;;;;;18.78;42.54;99111.28;4969352;28;20574;-54
2022/08/09 00:05:13;;;;;;;1.50;0.90;;;;;;;18.72;42.32;99118.97;4971475;28;20238;-51
2022/08/09 00:07:42;;;;;;;2.97;0.90;;;;;;;18.74;42.62;99113.47;4970857;28;20219;-54
2022/08/09 00:10:10;;;;;;;1.43;0.90;;;;;;;18.67;42.60;99124.03;4969338;28;20265;-51
2022/08/09 00:12:37;;;;;;;2.43;0.90;;;;;;;18.59;43.27;99114.38;4971692;28;20332;-51
2022/08/09 00:15:05;;;;;;;4.43;1.10;;;;;;;18.51;43.13;99125.13;4972572;28;20208;-51
2022/08/09 00:17:32;;;;;;;1.27;1.00;;;;;;;18.52;42.62;99128.56;4969244;28;20288;-51
2022/08/09 00:19:58;;;;;;;2.87;0.90;;;;;;;18.47;42.93;99120.38;4971517;28;20197;-51
2022/08/09 00:22:26;;;;;;;1.90;1.00;;;;;;;18.40;43.59;99120.34;4969475;28;20307;-51
2022/08/09 00:24:54;;;;;;;1.10;1.00;;;;;;;18.43;43.68;99117.31;4970246;28;20642;-50
2022/08/09 00:27:21;;;;;;;1.30;0.90;;;;;;;18.31;44.02;99122.28;4971079;28;20642;-53
2022/08/09 00:29:48;;;;;;;1.40;1.10;;;;;;;18.22;44.67;99115.47;4972261;28;20285;-50
2022/08/09 00:32:15;;;;;;;2.07;1.00;;;;;;;18.24;44.29;99110.81;4969439;28;20223;-52
2022/08/09 00:34:41;;;;;;;3.40;0.90;;;;;;;18.14;44.62;99114.59;4969140;28;20298;-51
2022/08/09 00:37:08;;;;;;;1.80;1.23;;;;;;;18.03;44.22;99109.81;4970077;28;20274;-53
2022/08/09 00:39:36;;;;;;;1.27;0.93;;;;;;;17.94;45.13;99117.00;4969420;28;20756;-51
2022/08/09 00:42:03;;;;;;;1.47;1.00;;;;;;;17.97;44.16;99113.19;4968183;28;20261;-54
2022/08/09 00:44:30;;;;;;;1.50;1.07;;;;;;;17.92;45.09;99113.75;4969068;28;20221;-51
2022/08/09 00:46:57;;;;;;;4.60;1.17;;;;;;;17.84;44.45;99119.97;4969979;28;20218;-53
2022/08/09 00:49:24;;;;;;;2.20;1.33;;;;;;;17.80;44.89;99118.69;4968853;28;20206;-52
2022/08/09 00:51:51;;;;;;;3.17;1.00;;;;;;;17.85;44.78;99120.78;4969419;28;20796;-51
2022/08/09 00:54:18;;;;;;;3.47;1.13;;;;;;;17.76;44.73;99114.78;4970011;28;20221;-51
2022/08/09 00:56:46;;;;;;;3.20;1.13;;;;;;;17.75;44.95;99118.44;4970259;28;20293;-50
2022/08/09 00:59:12;;;;;;;1.20;1.07;;;;;;;17.76;45.01;99120.06;4970186;28;20206;-51
2022/08/09 01:01:42;;;;;;;2.10;1.07;;;;;;;17.69;45.73;99122.63;4968313;28;20227;-53
2022/08/09 01:04:19;;;;;;;3.43;1.00;;;;;;;17.61;45.59;99121.91;4970127;28;20212;-52
2022/08/09 01:06:57;;;;;;;3.10;1.17;;;;;;;17.56;45.66;99123.28;4970122;28;20226;-52
2022/08/09 01:09:32;;;;;;;1.60;1.10;;;;;;;17.53;45.98;99113.09;4967669;28;20618;-53
2022/08/09 01:12:06;;;;;;;1.73;0.90;;;;;;;17.54;46.11;99109.47;4968815;28;20314;-54
2022/08/09 01:14:36;;;;;;;2.07;1.00;;;;;;;17.54;46.02;99109.47;4970004;28;20585;-53
2022/08/09 01:17:09;;;;;;;1.13;0.93;;;;;;;17.54;45.73;99109.47;4970048;28;20278;-53
2022/08/09 01:19:51;;;;;;;2.20;1.03;;;;;;;17.52;45.77;99108.81;4970566;28;20211;-51
2022/08/09 01:22:39;;;;;;;1.10;1.00;;;;;;;17.60;46.53;99112.38;4968679;28;20269;-53
2022/08/09 01:25:20;;;;;;;3.93;1.20;;;;;;;17.60;46.40;99104.44;4968420;28;20265;-51
2022/08/09 01:27:53;;;;;;;2.13;1.17;;;;;;;17.60;46.07;99115.00;4969736;28;20280;-54
2022/08/09 01:30:21;;;;;;;1.30;1.20;;;;;;;17.60;45.78;99118.44;4969069;28;20212;-51
2022/08/09 01:32:51;;;;;;;2.50;1.40;;;;;;;17.54;46.37;99117.38;4969315;28;20226;-54
2022/08/09 01:35:24;;;;;;;2.80;1.23;;;;;;;17.45;46.70;99115.84;4968295;28;20273;-53
2022/08/09 01:38:13;;;;;;;2.40;1.30;;;;;;;17.49;47.32;99125.03;4968010;28;20223;-50
2022/08/09 01:40:44;;;;;;;1.23;1.13;;;;;;;17.47;46.78;99119.09;4966946;28;20198;-52
2022/08/09 01:43:13;;;;;;;1.73;1.10;;;;;;;17.33;47.14;99125.22;4965558;28;20231;-53
2022/08/09 01:45:42;;;;;;;1.40;1.30;;;;;;;17.30;48.02;99122.94;4967417;28;20221;-51
2022/08/09 01:48:09;;;;;;;4.03;1.30;;;;;;;17.30;48.00;99125.56;4968786;28;20282;-51
2022/08/09 01:50:38;;;;;;;3.13;1.23;;;;;;;17.27;48.03;99127.56;4967911;28;20245;-53
2022/08/09 01:53:07;;;;;;;1.53;1.10;;;;;;;17.23;47.62;99125.50;4967400;28;20348;-52
2022/08/09 01:55:36;;;;;;;3.13;1.03;;;;;;;17.17;47.88;99123.59;4970771;28;20186;-51
2022/08/09 01:58:05;;;;;;;2.27;1.30;;;;;;;17.14;48.17;99124.75;4967405;28;20241;-51
2022/08/09 02:00:34;;;;;;;1.77;1.40;;;;;;;17.17;48.03;99124.38;4972106;28;20201;-53
2022/08/09 02:03:03;;;;;;;2.93;1.33;;;;;;;17.19;48.22;99126.88;4967913;28;20213;-54
2022/08/09 02:05:32;;;;;;;2.03;1.23;;;;;;;17.15;47.82;99131.66;4967221;28;20232;-53
2022/08/09 02:08:02;;;;;;;1.50;1.40;;;;;;;17.22;48.34;99137.84;4966965;28;20204;-53
2022/08/09 02:10:31;;;;;;;2.73;1.33;;;;;;;17.17;48.21;99137.56;4968269;28;20374;-53
2022/08/09 02:13:02;;;;;;;1.47;1.13;;;;;;;17.06;47.99;99136.22;4969259;28;20224;-51
2022/08/09 02:15:32;;;;;;;1.50;1.30;;;;;;;17.00;48.74;99139.56;4965999;28;20864;-53
2022/08/09 02:18:02;;;;;;;3.13;1.60;;;;;;;17.05;49.03;99139.03;4967067;28;20276;-49
2022/08/09 02:20:31;;;;;;;1.50;1.40;;;;;;;16.92;49.08;99140.47;4966677;28;20199;-52
2022/08/09 02:23:05;;;;;;;1.50;1.40;;;;;;;16.92;49.19;99145.72;4968673;28;20810;-49
2022/08/09 02:25:39;;;;;;;2.30;1.37;;;;;;;16.93;48.91;99136.81;4967980;28;20214;-49
2022/08/09 02:28:10;;;;;;;2.40;1.37;;;;;;;16.86;49.32;99143.81;4968082;28;20253;-51
2022/08/09 02:30:42;;;;;;;1.27;1.17;;;;;;;16.87;48.85;99140.16;4967020;28;20275;-53
2022/08/09 02:33:15;;;;;;;3.90;1.13;;;;;;;16.89;48.89;99145.25;4966318;28;20716;-50
2022/08/09 02:35:43;;;;;;;3.00;1.10;;;;;;;16.92;49.11;99144.91;4966322;28;20210;-49
2022/08/09 02:38:12;;;;;;;2.70;1.50;;;;;;;16.89;49.27;99150.53;4967703;28;20289;-49
2022/08/09 02:40:40;;;;;;;2.27;1.47;;;;;;;16.81;49.35;99149.59;4967262;28;20192;-51
2022/08/09 02:43:09;;;;;;;5.03;1.77;;;;;;;16.93;49.49;99142.09;4967664;28;20233;-52
2022/08/09 02:45:41;;;;;;;3.30;1.67;;;;;;;16.92;49.94;99136.97;4965588;28;20205;-52
2022/08/09 02:48:13;;;;;;;3.10;1.50;;;;;;;16.99;49.52;99140.56;4966425;28;20194;-49
2022/08/09 02:50:45;;;;;;;1.93;1.50;;;;;;;16.93;50.07;99139.47;4969265;28;20290;-49
2022/08/09 02:53:18;;;;;;;2.33;1.47;;;;;;;16.90;50.20;99137.19;4967710;28;20222;-52
2022/08/09 02:55:47;;;;;;;2.53;1.50;;;;;;;16.92;50.10;99137.81;4966364;28;20189;-50
2022/08/09 02:58:15;;;;;;;1.93;1.70;;;;;;;16.88;50.71;99144.44;4967961;28;20225;-52
2022/08/09 03:00:44;;;;;;;2.60;1.63;;;;;;;16.90;51.19;99142.44;4966591;28;20193;-49
2022/08/09 03:03:13;;;;;;;2.20;2.00;;;;;;;16.95;51.67;99145.38;4965097;28;20228;-52
2022/08/09 03:05:42;;;;;;;3.90;1.80;;;;;;;16.94;50.90;99149.00;4967543;28;20198;-50
2022/08/09 03:08:10;;;;;;;1.97;1.77;;;;;;;16.89;51.51;99138.19;4965950;28;21748;-49
2022/08/09 03:10:38;;;;;;;3.13;1.83;;;;;;;16.80;51.88;99147.16;4967683;28;20212;-50
2022/08/09 03:13:06;;;;;;;2.10;1.63;;;;;;;16.76;52.51;99143.22;4966992;28;20618;-49
2022/08/09 03:15:33;;;;;;;2.33;1.70;;;;;;;16.77;51.95;99150.94;4967115;28;20302;-52
2022/08/09 03:18:22;;;;;;;4.70;1.90;;;;;;;16.77;52.15;99145.69;4966127;28;20339;-53
2022/08/09 03:20:51;;;;;;;1.90;1.70;;;;;;;16.71;52.42;99148.22;4966302;28;20212;-51
2022/08/09 03:23:18;;;;;;;2.47;1.50;;;;;;;16.62;52.30;99143.00;4965869;28;20216;-51
2022/08/09 03:25:47;;;;;;;4.57;1.60;;;;;;;16.58;52.51;99141.72;4967826;28;20205;-54
2022/08/09 03:28:14;;;;;;;1.90;1.57;;;;;;;16.52;53.29;99139.81;4967459;28;20205;-52
2022/08/09 03:30:42;;;;;;;3.37;1.87;;;;;;;16.48;53.34;99143.78;4968121;28;20582;-51
2022/08/09 03:33:10;;;;;;;7.73;2.57;;;;;;;16.44;53.63;99140.66;4967315;28;20316;-51
2022/08/09 03:35:38;;;;;;;2.63;2.10;;;;;;;16.36;54.22;99141.56;4965034;28;20189;-54
2022/08/09 03:38:05;;;;;;;2.67;1.80;;;;;;;16.36;54.57;99144.19;4965986;28;20258;-52
2022/08/09 03:40:32;;;;;;;3.00;2.00;;;;;;;16.35;54.73;99141.75;4965373;28;20214;-53
2022/08/09 03:42:59;;;;;;;2.53;2.00;;;;;;;16.31;55.04;99143.91;4965267;28;20237;-51
2022/08/09 03:45:44;;;;;;;3.70;2.00;;;;;;;16.26;55.53;99146.25;4964735;28;20271;-52
2022/08/09 03:48:11;;;;;;;2.70;2.23;;;;;;;16.27;55.51;99147.88;4965683;28;20204;-53
2022/08/09 03:50:42;;;;;;;2.20;1.97;;;;;;;16.20;56.02;99147.78;4965930;28;20211;-52
2022/08/09 03:53:10;;;;;;;1.97;1.87;;;;;;;16.18;55.97;99155.03;4976290;28;20249;-54
2022/08/09 03:55:37;;;;;;;2.47;2.10;;;;;;;16.22;56.50;99150.22;4965059;28;20192;-53
2022/08/09 03:58:04;;;;;;;3.40;2.23;;;;;;;16.18;56.94;99162.09;4965500;28;20212;-51
2022/08/09 04:00:31;;;;;;;2.23;2.03;;;;;;;16.17;57.20;99161.28;4964809;28;20672;-49
2022/08/09 04:02:59;;;;;;;2.67;2.20;;;;;;;16.15;57.57;99154.53;4966833;28;20227;-50
2022/08/09 04:05:26;;;;;;;5.77;2.40;;;;;;;16.17;57.69;99155.19;4965718;28;20687;-52
2022/08/09 04:07:54;;;;;;;4.07;2.37;;;;;;;16.17;58.05;99163.09;4965323;28;20220;-52
2022/08/09 04:10:22;;;;;;;4.53;2.50;;;;;;;16.15;58.68;99158.00;4965752;28;20646;-50
2022/08/09 04:12:50;;;;;;;4.30;2.67;;;;;;;16.18;58.99;99164.72;4965496;28;20228;-52
2022/08/09 04:15:19;;;;;;;5.50;2.50;;;;;;;16.19;59.45;99161.09;4966640;28;20575;-50
2022/08/09 04:17:46;;;;;;;3.83;2.87;;;;;;;16.26;59.06;99169.94;4965470;28;20829;-50
2022/08/09 04:20:14;;;;;;;3.13;2.83;;;;;;;16.23;59.24;99172.94;4965342;28;20669;-53
2022/08/09 04:22:41;;;;;;;2.70;2.50;;;;;;;16.20;59.15;99168.00;4966221;28;20565;-50
2022/08/09 04:25:11;;;;;;;3.23;2.43;;;;;;;16.15;59.45;99178.25;4966916;28;20601;-50
2022/08/09 04:27:40;;;;;;;3.33;2.60;;;;;;;16.13;59.65;99173.16;4966700;28;20617;-51
2022/08/09 04:30:09;;;;;;;3.80;2.60;;;;;;;16.12;59.80;99181.22;4965087;28;20646;-50
2022/08/09 04:32:36;;;;;;;3.53;2.97;;;;;;;16.23;60.20;99175.56;4932013;28;20232;-53
2022/08/09 04:35:03;;;;;;;5.70;2.80;;;;;;;16.21;60.03;99180.19;4967504;28;21129;-49
2022/08/09 04:37:30;;;;;;;2.80;2.60;;;;;;;16.26;59.96;99183.13;4969327;28;20192;-53
2022/08/09 04:39:56;;;;;;;3.87;2.50;;;;;;;16.23;60.28;99184.28;4972587;28;20208;-49
2022/08/09 04:42:28;;;;;;;3.07;2.73;;;;;;;16.21;59.43;99190.72;4968178;28;20707;-49
2022/08/09 04:44:55;;;;;;;4.27;2.87;;;;;;;16.24;60.40;99195.63;4969777;28;20283;-49
2022/08/09 04:47:21;;;;;;;3.10;2.70;;;;;;;16.26;60.38;99198.13;4969861;28;20227;-52
2022/08/09 04:49:48;;;;;;;4.33;2.90;;;;;;;16.34;60.71;99196.25;4968475;28;20188;-50
2022/08/09 04:52:15;;;;;;;3.43;2.80;;;;;;;16.33;60.47;99197.22;4971691;28;20221;-50
2022/08/09 04:54:41;;;;;;;3.57;3.17;;;;;;;16.32;60.59;99206.13;4971704;28;20279;-50
2022/08/09 04:57:08;;;;;;;3.07;2.87;;;;;;;16.30;60.56;99200.22;4969049;28;20213;-51
2022/08/09 04:59:37;;;;;;;3.20;2.90;;;;;;;16.32;60.58;99211.41;4968470;28;20440;-49
2022/08/09 05:02:04;;;;;;;3.87;3.00;;;;;;;16.36;61.05;99212.69;4970089;28;20230;-50
2022/08/09 05:04:30;;;;;;;2.97;2.67;;;;;;;16.35;61.04;99213.69;4970047;28;20637;-50
2022/08/09 05:06:57;;;;;;;3.53;2.87;;;;;;;16.38;61.54;99210.69;4969527;28;20229;-51
2022/08/09 05:09:24;;;;;;;3.20;2.60;;;;;;;16.37;61.38;99222.22;4969123;28;20199;-52
2022/08/09 05:11:51;;;;;;;3.80;2.70;;;;;;;16.40;61.45;99207.06;4972270;28;20215;-50
2022/08/09 05:14:17;;;;;;;3.00;2.70;;;;;;;16.40;61.29;99215.81;4969626;28;20189;-51
2022/08/09 05:16:45;;;;;;;6.40;3.20;;;;;;;16.40;61.71;99213.19;4968287;28;20264;-52
2022/08/09 05:19:13;;;;;;;6.17;3.40;;;;;;;16.40;61.81;99214.97;4968377;28;20196;-51
2022/08/09 05:21:40;;;;;;;3.83;2.80;;;;;;;16.45;61.64;99218.72;4967951;28;20206;-51
2022/08/09 05:24:07;;;;;;;3.93;3.63;;;;;;;16.52;62.60;99214.38;4970827;28;20211;-52
2022/08/09 05:26:34;;;;;;;3.50;3.10;;;;;;;16.60;61.49;99218.81;4970764;28;20687;-50
2022/08/09 05:29:01;;;;;;;3.90;3.23;;;;;;;16.62;61.28;99226.53;4968459;28;20283;-52
2022/08/09 05:31:28;;;;;;;4.03;2.80;;;;;;;16.60;62.11;99217.97;4971398;28;20299;-50
2022/08/09 05:33:56;;;;;;;4.33;3.10;;;;;;;16.72;62.22;99213.13;4970968;28;20218;-51
2022/08/09 05:36:23;;;;;;;3.70;3.20;;;;;;;16.71;61.63;99216.75;4970309;28;20656;-51
2022/08/09 05:38:49;;;;;;;4.90;4.03;;;;;;;16.73;62.17;99217.41;4969058;28;20207;-52
2022/08/09 05:41:16;;;;;;;4.23;3.57;;;;;;;16.74;62.85;99224.31;4966894;28;20216;-50
2022/08/09 05:43:43;;;;;;;3.60;3.20;;;;;;;16.74;62.24;99224.31;4967526;28;20191;-51
2022/08/09 05:46:12;;;;;;;5.13;3.53;;;;;;;16.75;62.03;99229.41;4970915;28;20208;-53
2022/08/09 05:48:39;;;;;;;3.77;2.83;;;;;;;16.79;62.58;99227.25;4967569;28;20291;-50
2022/08/09 05:51:07;;;;;;;3.27;3.00;;;;;;;16.81;62.22;99233.16;4969127;28;20580;-53
2022/08/09 05:53:33;;;;;;;5.07;3.20;;;;;;;16.84;62.11;99235.44;4968226;28;20216;-51
2022/08/09 05:56:00;;;;;;;4.63;3.40;;;;;;;16.87;62.71;99243.00;4968753;28;20208;-53
2022/08/09 05:58:27;;;;;;;4.20;3.80;;;;;;;16.90;62.35;99247.09;4969906;28;20573;-49
2022/08/09 06:00:54;;;;;;;4.53;3.00;;;;;;;16.93;61.36;99252.00;4967273;28;20205;-52
2022/08/09 06:03:21;;;;;;;5.03;3.30;;;;;;;16.94;61.98;99257.13;4966965;28;20224;-53
2022/08/09 06:05:48;;;;;;;9.67;3.47;;;;;;;16.95;62.53;99261.41;4967154;28;20198;-51
2022/08/09 06:08:17;;;;;;;3.30;3.00;;;;;;;17.04;61.05;99269.25;4968855;28;20228;-50
2022/08/09 06:10:44;;;;;;;4.70;3.33;;;;;;;17.08;60.15;99267.91;4970092;28;20219;-50
2022/08/09 06:13:12;;;;;;;4.70;3.27;;;;;;;17.18;59.85;99265.03;4968239;28;20222;-53
2022/08/09 06:15:39;;;;;;;4.57;3.00;;;;;;;17.22;59.45;99258.41;4967420;28;20201;-50
2022/08/09 06:18:06;;;;;;;5.97;3.17;;;;;;;17.30;60.01;99268.88;4968536;28;20200;-52
2022/08/09 06:20:33;;;;;;;3.97;3.07;;;;;;;17.37;59.91;99261.06;4967462;28;20202;-50
2022/08/09 06:23:00;;;;;;;4.00;3.20;;;;;;;17.46;59.81;99267.91;4967424;28;20230;-50
2022/08/09 06:25:28;;;;;;;3.40;3.10;;;;;;;17.49;60.21;99266.75;4968538;28;20192;-51
2022/08/09 06:27:55;;;;;;;3.50;2.83;;;;;;;17.56;60.23;99262.34;4970135;28;20203;-50
2022/08/09 06:30:21;;;;;;;3.43;3.13;;;;;;;17.62;59.76;99269.53;4967979;28;20193;-51
2022/08/09 06:32:50;;;;;;;4.80;3.53;;;;;;;17.75;59.22;99270.75;4968072;28;20275;-50
2022/08/09 06:35:16;;;;;;;4.37;2.97;;;;;;;17.87;59.26;99271.94;4966727;28;20204;-50
2022/08/09 06:37:43;;;;;;;4.57;3.00;;;;;;;18.02;59.07;99271.13;4966832;28;20207;-50
2022/08/09 06:40:11;;;;;;;3.23;2.93;;;;;;;18.22;58.34;99274.84;4967254;28;20206;-53
2022/08/09 06:42:39;;;;;;;4.93;3.20;;;;;;;18.49;58.17;99276.97;4967610;28;20221;-50
2022/08/09 06:45:08;;;;;;;4.17;3.00;;;;;;;18.74;56.40;99288.00;4967134;28;20253;-50
2022/08/09 06:47:34;;;;;;;2.80;2.10;;;;;;;19.01;53.20;99281.22;4968431;28;20313;-51
2022/08/09 06:50:01;;;;;;;3.90;2.37;;;;;;;19.14;51.08;99282.31;4966241;28;20217;-50
2022/08/09 06:52:28;;;;;;;4.37;2.50;;;;;;;19.36;50.92;99290.22;4967451;28;20706;-53
2022/08/09 06:54:55;;;;;;;4.67;2.57;;;;;;;19.50;50.90;99285.88;4969465;28;20693;-50
2022/08/09 06:57:22;;;;;;;3.10;2.50;;;;;;;19.58;50.07;99285.72;4967031;28;20197;-53
2022/08/09 06:59:50;;;;;;;3.87;2.40;;;;;;;19.72;49.83;99290.06;4966471;28;20219;-52
2022/08/09 07:02:16;;;;;;;3.70;2.47;;;;;;;19.78;49.48;99296.44;4965813;28;20243;-52
2022/08/09 07:04:43;;;;;;;4.80;2.30;;;;;;;19.94;49.35;99294.53;4966971;28;20218;-51
2022/08/09 07:07:09;;;;;;;4.57;2.30;;;;;;;20.08;48.61;99300.69;4971108;28;20207;-50
2022/08/09 07:09:36;;;;;;;3.37;2.03;;;;;;;20.15;48.92;99297.03;4966612;28;20263;-52
2022/08/09 07:12:08;;;;;;;3.73;2.47;;;;;;;20.26;48.41;99302.81;4967251;28;20248;-52
2022/08/09 07:14:35;;;;;;;3.67;2.43;;;;;;;20.40;47.70;99301.03;4971794;28;20284;-51
2022/08/09 07:17:03;;;;;;;4.30;2.87;;;;;;;20.51;47.03;99300.47;4966591;28;20227;-50
2022/08/09 07:19:30;;;;;;;4.53;2.20;;;;;;;20.56;47.26;99305.16;4967782;28;20664;-53
2022/08/09 07:21:57;;;;;;;2.53;2.03;;;;;;;20.68;46.61;99300.91;4965448;28;20339;-53
2022/08/09 07:24:24;;;;;;;3.93;2.30;;;;;;;20.78;46.99;99305.84;4949385;28;20198;-51
2022/08/09 07:26:51;;;;;;;13.10;2.40;;;;;;;20.93;46.70;99313.66;4966924;28;20716;-51
2022/08/09 07:29:18;;;;;;;2.73;2.10;;;;;;;20.92;46.65;99315.47;4967502;28;20220;-49
2022/08/09 07:31:44;;;;;;;3.57;2.33;;;;;;;21.03;46.36;99318.56;4967243;28;20435;-52
2022/08/09 07:34:12;;;;;;;4.60;2.37;;;;;;;21.06;45.97;99311.03;4965270;28;20201;-51
2022/08/09 07:36:39;;;;;;;6.30;2.77;;;;;;;21.12;45.90;99320.00;4969846;28;20552;-51
2022/08/09 07:39:06;;;;;;;5.30;2.57;;;;;;;21.21;46.42;99318.78;4969742;28;20257;-50
2022/08/09 07:41:33;;;;;;;3.30;2.20;;;;;;;21.25;45.96;99311.22;4964424;28;20220;-53
2022/08/09 07:44:00;;;;;;;4.03;2.53;;;;;;;21.39;45.70;99315.50;4967355;28;20203;-51
2022/08/09 07:46:27;;;;;;;8.03;2.47;;;;;;;21.46;45.57;99314.69;4967811;28;20277;-50
2022/08/09 07:48:54;;;;;;;5.20;2.17;;;;;;;21.60;45.42;99316.31;4967883;28;20220;-53
2022/08/09 07:51:22;;;;;;;3.50;2.13;;;;;;;21.67;44.93;99303.06;4967817;28;20221;-51
2022/08/09 07:53:51;;;;;;;2.40;1.83;;;;;;;21.80;44.75;99318.97;4968488;28;20197;-51
2022/08/09 07:56:18;;;;;;;2.93;2.13;;;;;;;21.91;44.68;99319.34;4967495;28;20660;-52
2022/08/09 07:58:44;;;;;;;3.20;2.07;;;;;;;22.06;44.65;99319.13;4973311;28;20224;-51
2022/08/09 08:01:11;;;;;;;7.10;2.00;;;;;;;22.16;44.05;99321.34;4966386;28;20233;-50
2022/08/09 08:03:38;;;;;;;5.47;2.03;;;;;;;22.20;43.97;99317.22;4971901;28;20221;-50
2022/08/09 08:06:05;;;;;;;3.77;1.90;;;;;;;22.29;43.40;99317.78;4968509;28;20201;-52
2022/08/09 08:08:33;;;;;;;2.87;1.80;;;;;;;22.34;43.39;99317.97;4969380;28;20212;-50
2022/08/09 08:11:00;;;;;;;2.53;1.60;;;;;;;22.49;43.16;99323.09;4969349;28;20194;-51
2022/08/09 08:13:27;;;;;;;5.23;1.83;;;;;;;22.58;42.13;99326.31;4970952;28;20194;-50
2022/08/09 08:15:54;;;;;;;2.60;1.80;;;;;;;22.52;42.28;99322.66;4969998;28;20220;-51
2022/08/09 08:18:21;;;;;;;3.43;1.77;;;;;;;22.64;42.09;99318.31;4974141;28;20192;-50
2022/08/09 08:21:06;;;;;;;3.13;1.80;;;;;;;22.67;42.38;99317.03;4972141;28;20294;-51
2022/08/09 08:23:34;;;;;;;3.07;2.00;;;;;;;22.80;42.76;99319.63;4971316;28;20202;-51
2022/08/09 08:26:01;;;;;;;5.20;1.80;;;;;;;22.95;42.14;99322.00;4972331;28;21549;-51
2022/08/09 08:28:27;;;;;;;7.77;1.90;;;;;;;23.01;42.07;99330.97;4971730;28;20212;-50
2022/08/09 08:30:55;;;;;;;2.57;2.00;;;;;;;23.07;42.02;99324.78;4973882;28;20296;-50
2022/08/09 08:33:39;;;;;;;5.43;1.70;;;;;;;23.19;41.76;99324.09;4971279;28;20604;-52
2022/08/09 08:36:07;;;;;;;3.73;1.70;;;;;;;23.29;41.12;99324.47;4970068;28;20623;-50
2022/08/09 08:38:37;;;;;;;7.20;1.93;;;;;;;23.33;41.10;99324.81;4969162;28;20195;-50
2022/08/09 08:41:04;;;;;;;5.73;1.90;;;;;;;23.47;41.10;99320.19;4970940;28;20188;-51
2022/08/09 08:43:31;;;;;;;1.87;1.57;;;;;;;23.57;40.71;99308.03;4967853;28;20235;-53
2022/08/09 08:46:03;;;;;;;3.47;1.90;;;;;;;23.77;40.82;99312.34;4968420;28;20242;-52
2022/08/09 08:48:30;;;;;;;6.47;1.70;;;;;;;23.86;40.32;99304.84;4967679;28;20212;-50
2022/08/09 08:50:58;;;;;;;14.80;2.50;;;;;;;23.98;40.51;99305.75;4966711;28;20220;-50
2022/08/09 08:53:44;;;;;;;8.17;1.63;;;;;;;24.22;40.55;99305.09;4970797;28;20228;-52
2022/08/09 08:56:11;;;;;;;7.57;2.00;;;;;;;24.43;39.22;99311.81;4968353;28;20213;-52
2022/08/09 08:58:38;;;;;;;6.20;1.90;;;;;;;24.71;39.17;99303.22;4970757;28;20667;-50
2022/08/09 09:01:06;;;;;;;4.27;1.70;;;;;;;24.99;36.97;99317.81;4968611;28;20241;-51
2022/08/09 09:03:34;;;;;;;3.70;1.93;;;;;;;25.16;36.59;99307.31;4969432;28;20337;-52
2022/08/09 09:06:03;;;;;;;3.53;1.97;;;;;;;25.28;36.34;99311.84;4969024;28;20204;-52
2022/08/09 09:08:33;;;;;;;4.90;1.57;;;;;;;25.56;35.96;99307.69;4968006;28;20216;-53
2022/08/09 09:11:04;;;;;;;2.83;1.70;;;;;;;25.62;36.73;99304.09;4968346;28;20294;-54
2022/08/09 09:13:33;;;;;;;3.40;1.60;;;;;;;25.87;34.41;99300.34;4968052;28;20225;-53
2022/08/09 09:16:01;;;;;;;2.53;1.70;;;;;;;26.15;32.83;99298.81;4951880;28;20316;-53
2022/08/09 09:18:27;;;;;;;5.95;1.90;;;;;;;26.43;31.77;99307.91;4967388;28;21090;-52
2022/08/09 09:20:54;;;;;;;4.00;1.70;;;;;;;26.66;31.90;99313.13;4968482;28;20202;-52
2022/08/09 09:23:40;;;;;;;3.92;1.38;;;;;;;26.68;31.20;99316.38;4969932;28;20265;-50
2022/08/09 09:26:08;;;;;;;3.10;1.80;;;;;;;26.76;31.11;99303.66;4969411;28;20230;-50
2022/08/09 09:28:36;;;;;;;7.23;1.90;;;;;;;26.83;31.62;99306.25;4968203;28;20211;-50
2022/08/09 09:31:05;;;;;;;2.33;1.80;;;;;;;26.83;32.45;99304.34;4967523;28;20633;-53
2022/08/09 09:33:36;;;;;;;1.77;1.65;;;;;;;26.72;31.99;99300.66;4967841;28;20578;-51
2022/08/09 09:36:05;;;;;;;2.72;1.60;;;;;;;26.86;32.63;99300.41;4968979;28;20226;-50
2022/08/09 09:38:45;;;;;;;6.27;1.77;;;;;;;26.92;32.11;99296.75;4967987;28;20189;-53
2022/08/09 09:41:28;;;;;;;3.83;1.57;;;;;;;26.87;33.08;99280.59;4982225;28;20231;-51
2022/08/09 09:43:56;;;;;;;3.63;1.53;;;;;;;26.99;31.26;99300.09;4970137;28;20240;-51
2022/08/09 09:46:43;;;;;;;3.20;1.90;;;;;;;27.07;32.24;99302.34;4967223;28;20480;-53
2022/08/09 09:49:11;;;;;;;4.07;1.83;;;;;;;27.05;32.40;99306.31;4966869;28;20226;-54
2022/08/09 09:51:40;;;;;;;5.30;1.77;;;;;;;27.15;32.43;99308.34;4968070;28;20218;-51
2022/08/09 09:54:09;;;;;;;7.60;2.00;;;;;;;27.18;32.35;99313.22;4967718;28;20206;-53
2022/08/09 09:56:39;;;;;;;4.28;1.92;;;;;;;27.13;32.62;99305.94;4967587;28;20201;-50
2022/08/09 09:59:08;;;;;;;2.13;1.70;;;;;;;27.00;33.05;99299.03;4968813;28;20200;-50
2022/08/09 10:01:35;;;;;;;3.15;1.73;;;;;;;27.13;33.13;99295.22;4968233;28;20237;-51
2022/08/09 10:04:04;;;;;;;3.97;1.90;;;;;;;27.22;32.55;99293.75;4967832;28;20207;-51
2022/08/09 10:06:39;;;;;;;8.65;1.90;;;;;;;27.21;33.25;99289.44;4967743;28;20205;-54
2022/08/09 10:09:07;;;;;;;7.30;2.10;;;;;;;27.19;33.13;99291.56;4967264;28;20252;-50
2022/08/09 10:11:35;;;;;;;7.47;1.98;;;;;;;27.22;32.22;99282.19;4967873;28;20226;-51
2022/08/09 10:14:04;;;;;;;3.40;1.70;;;;;;;27.31;31.77;99266.53;4967625;28;20263;-54
2022/08/09 10:16:33;;;;;;;4.20;2.08;;;;;;;27.52;31.78;99284.56;4968469;28;20226;-54
2022/08/09 10:19:03;;;;;;;4.30;1.88;;;;;;;27.63;30.65;99285.50;4971116;28;20200;-51
2022/08/09 10:21:31;;;;;;;1.98;1.73;;;;;;;27.70;26.55;99288.81;4967304;28;20234;-51
2022/08/09 10:24:01;;;;;;;5.22;1.63;;;;;;;27.79;26.31;99281.16;4954479;28;20210;-52
2022/08/09 10:26:29;;;;;;;2.45;1.70;;;;;;;27.83;26.04;99281.47;4967422;28;20207;-50
2022/08/09 10:28:57;;;;;;;2.03;1.48;;;;;;;27.90;26.14;99283.97;4970991;28;20213;-51
2022/08/09 10:31:25;;;;;;;2.80;1.70;;;;;;;27.93;26.17;99276.25;4966746;28;20225;-50
2022/08/09 10:33:52;;;;;;;2.63;1.80;;;;;;;28.05;26.77;99267.25;4966041;28;20306;-51
2022/08/09 10:36:19;;;;;;;4.63;1.63;;;;;;;28.19;26.17;99276.53;4967397;28;20270;-51
2022/08/09 10:38:46;;;;;;;2.72;1.33;;;;;;;28.35;25.07;99282.91;4966869;28;20200;-52
2022/08/09 10:41:15;;;;;;;2.05;1.30;;;;;;;28.36;25.55;99275.66;4969194;28;20191;-53
2022/08/09 10:43:44;;;;;;;2.00;1.52;;;;;;;28.46;25.86;99280.34;4966740;28;20204;-54
2022/08/09 10:46:33;;;;;;;2.90;1.48;;;;;;;28.54;25.20;99279.88;4968607;28;20254;-51
2022/08/09 10:49:08;;;;;;;3.58;1.48;;;;;;;28.49;26.09;99274.47;4966361;28;20209;-51
2022/08/09 10:51:46;;;;;;;3.30;1.20;;;;;;;28.64;25.45;99277.25;4968170;28;20327;-54
2022/08/09 10:54:13;;;;;;;3.45;1.50;;;;;;;28.48;24.22;99273.63;4967498;28;20745;-54
2022/08/09 10:56:42;;;;;;;5.32;1.90;;;;;;;28.45;24.80;99273.34;4969290;28;20198;-52
2022/08/09 10:59:28;;;;;;;4.30;1.75;;;;;;;28.53;24.88;99272.88;4965924;28;21026;-53
2022/08/09 11:01:57;;;;;;;2.13;1.30;;;;;;;28.38;24.17;99268.16;4964794;28;20232;-51
2022/08/09 11:04:25;;;;;;;2.60;1.58;;;;;;;28.35;24.43;99272.16;4967041;28;20205;-53
2022/08/09 11:07:28;;;;;;;2.63;1.33;;;;;;;28.53;25.04;99273.69;4967872;28;20202;-51
2022/08/09 11:09:56;;;;;;;1.92;1.35;;;;;;;28.69;24.31;99273.81;4964131;28;20224;-53
2022/08/09 11:12:24;;;;;;;1.65;1.48;;;;;;;28.61;24.33;99267.06;4967206;28;20208;-52
2022/08/09 11:14:54;;;;;;;2.53;1.50;;;;;;;28.73;24.13;99265.00;4966437;28;20197;-51
2022/08/09 11:17:55;;;;;;;5.00;1.50;;;;;;;28.77;23.84;99273.41;4968475;28;20227;-51
2022/08/09 11:20:43;;;;;;;3.10;1.35;;;;;;;28.85;23.64;99251.44;4965345;28;20275;-54
2022/08/09 11:23:12;;;;;;;1.55;1.30;;;;;;;28.91;23.66;99260.34;4968247;28;20232;-51
2022/08/09 11:25:57;;;;;;;1.92;1.20;;;;;;;29.12;24.52;99255.94;4970445;28;20266;-54
2022/08/09 11:28:43;;;;;;;1.52;1.38;;;;;;;29.44;24.54;99252.38;4967985;28;20268;-54
2022/08/09 11:31:44;;;;;;;1.88;1.40;;;;;;;29.58;23.93;99252.75;4967080;28;20233;-51
2022/08/09 11:34:20;;;;;;;5.28;1.60;;;;;;;29.54;23.52;99248.94;4966462;28;20222;-51
2022/08/09 11:36:48;;;;;;;4.05;1.98;;;;;;;29.57;23.40;99252.97;4968115;28;20200;-51
2022/08/09 11:39:15;;;;;;;1.58;1.40;;;;;;;29.52;23.62;99244.88;4966310;28;20206;-52
2022/08/09 11:41:42;;;;;;;2.15;1.60;;;;;;;29.34;23.57;99246.91;4966139;28;20227;-51
2022/08/09 11:44:09;;;;;;;2.80;1.45;;;;;;;29.19;23.44;99260.25;4967645;28;20823;-51